Time;durP1;ratioP1;P1;durP2;ratioP2;P2;SDS_P1;SDS_P2;PMS_P1;PMS_P2;Temp;Humidity;BMP_temperature;BMP_pressure;BME280_temperature;BME280_humidity;BME280_pressure;Samples;Min_cycle;Max_cycle;Signal;HPM_P1;HPM_P2
2024/01/14 00:01:47;;;;;;;30.55;28.35;;;;;;;;;;5068748;28;20048;-59
2024/01/14 00:04:13;;;;;;;32.45;30.15;;;;;;;;;;5070546;28;20471;-52
2024/01/14 00:06:39;;;;;;;34.33;31.92;;;;;;;;;;5070695;28;20052;-58
2024/01/14 00:09:05;;;;;;;34.28;31.88;;;;;;;;;;5070803;28;20029;-57
2024/01/14 00:11:31;;;;;;;35.63;33.13;;;;;;;;;;5069582;28;20386;-58
2024/01/14 00:13:57;;;;;;;34.70;32.30;;;;;;;;;;5070372;28;20032;-53
2024/01/14 00:16:23;;;;;;;32.83;30.52;;;;;;;;;;5069954;28;20036;-57
2024/01/14 00:18:49;;;;;;;32.72;30.42;;;;;;;;;;5070394;28;20020;-56
2024/01/14 00:21:15;;;;;;;32.20;29.90;;;;;;;;;;5068014;28;20428;-56
2024/01/14 00:23:40;;;;;;;32.50;30.20;;;;;;;;;;5069758;28;20098;-57
2024/01/14 00:26:06;;;;;;;32.50;30.20;;;;;;;;;;5069943;28;20017;-56
2024/01/14 00:28:32;;;;;;;31.67;29.38;;;;;;;;;;5069915;28;20032;-57
2024/01/14 00:30:58;;;;;;;37.47;34.45;;;;;;;;;;5069019;28;20028;-59
2024/01/14 00:33:24;;;;;;;33.50;30.85;;;;;;;;;;5069782;28;20090;-59
2024/01/14 00:35:50;;;;;;;36.25;32.95;;;;;;;;;;5070001;28;20035;-58
2024/01/14 00:38:16;;;;;;;37.75;34.63;;;;;;;;;;5069580;28;20055;-58
2024/01/14 00:40:42;;;;;;;40.35;37.28;;;;;;;;;;5068782;28;20543;-56
2024/01/14 00:43:08;;;;;;;39.00;35.35;;;;;;;;;;5077811;28;20045;-53
2024/01/14 00:45:34;;;;;;;43.47;39.40;;;;;;;;;;5089830;28;20478;-56
2024/01/14 00:48:00;;;;;;;35.80;32.55;;;;;;;;;;5086576;28;20036;-56
2024/01/14 00:50:26;;;;;;;38.38;35.22;;;;;;;;;;5080375;28;20091;-59
2024/01/14 00:52:52;;;;;;;37.33;34.10;;;;;;;;;;5073910;28;20024;-56
2024/01/14 00:55:18;;;;;;;40.78;36.90;;;;;;;;;;5089748;28;20035;-57
2024/01/14 00:57:44;;;;;;;38.22;35.28;;;;;;;;;;5091145;28;20024;-55
2024/01/14 01:00:10;;;;;;;46.15;42.63;;;;;;;;;;5090701;28;20036;-58
2024/01/14 01:02:36;;;;;;;35.85;32.75;;;;;;;;;;5089816;28;20059;-56
2024/01/14 01:05:03;;;;;;;42.03;38.92;;;;;;;;;;5090744;28;20060;-58
2024/01/14 01:07:29;;;;;;;38.45;35.63;;;;;;;;;;5072379;28;20639;-57
2024/01/14 01:09:55;;;;;;;47.42;42.40;;;;;;;;;;5090405;28;20078;-55
2024/01/14 01:12:21;;;;;;;46.25;41.85;;;;;;;;;;5089541;28;20028;-57
2024/01/14 01:14:47;;;;;;;42.50;38.47;;;;;;;;;;5090098;28;20101;-55
2024/01/14 01:17:14;;;;;;;37.83;34.95;;;;;;;;;;5090900;28;20027;-56
2024/01/14 01:19:40;;;;;;;40.80;36.67;;;;;;;;;;5090730;28;20020;-57
2024/01/14 01:22:06;;;;;;;34.90;32.13;;;;;;;;;;5090287;28;20051;-58
2024/01/14 01:24:31;;;;;;;37.47;34.67;;;;;;;;;;5090508;28;20474;-58
2024/01/14 01:26:58;;;;;;;35.60;33.10;;;;;;;;;;5090498;28;20032;-58
2024/01/14 01:29:24;;;;;;;37.25;34.42;;;;;;;;;;5090729;28;20024;-57
2024/01/14 01:31:50;;;;;;;34.17;31.58;;;;;;;;;;5089920;28;20604;-55
2024/01/14 01:34:16;;;;;;;39.78;36.47;;;;;;;;;;5090510;28;20064;-58
2024/01/14 01:36:41;;;;;;;37.58;34.83;;;;;;;;;;5090140;28;20058;-56
2024/01/14 01:39:07;;;;;;;40.15;36.10;;;;;;;;;;5089375;28;20020;-58
2024/01/14 01:41:33;;;;;;;36.63;33.65;;;;;;;;;;5088972;28;20039;-55
2024/01/14 01:43:59;;;;;;;29.75;27.55;;;;;;;;;;5089577;28;20152;-57
2024/01/14 01:46:25;;;;;;;34.88;31.60;;;;;;;;;;5076926;28;20497;-54
2024/01/14 01:48:51;;;;;;;30.00;27.48;;;;;;;;;;5075024;28;20069;-55
2024/01/14 01:51:18;;;;;;;31.58;28.88;;;;;;;;;;5068344;28;20047;-53
2024/01/14 01:53:44;;;;;;;36.53;33.25;;;;;;;;;;5069697;28;20096;-54
2024/01/14 01:56:10;;;;;;;33.97;31.02;;;;;;;;;;5069153;28;20025;-58
2024/01/14 01:58:36;;;;;;;39.50;35.47;;;;;;;;;;5067565;28;20027;-56
2024/01/14 02:01:05;;;;;;;33.13;30.10;;;;;;;;;;5068230;28;20091;-57
2024/01/14 02:03:31;;;;;;;31.92;28.65;;;;;;;;;;5067413;28;20025;-58
2024/01/14 02:05:58;;;;;;;28.40;26.10;;;;;;;;;;5069068;28;20024;-57
2024/01/14 02:08:24;;;;;;;33.78;30.67;;;;;;;;;;5069076;28;20123;-58
2024/01/14 02:10:50;;;;;;;44.97;34.65;;;;;;;;;;5083142;28;20148;-55
2024/01/14 02:13:16;;;;;;;34.15;31.10;;;;;;;;;;5088297;28;20020;-56
2024/01/14 02:15:42;;;;;;;32.20;29.25;;;;;;;;;;5089073;28;20047;-58
2024/01/14 02:18:08;;;;;;;36.50;32.92;;;;;;;;;;5088657;28;20034;-59
2024/01/14 02:20:34;;;;;;;30.88;28.08;;;;;;;;;;5070348;28;20385;-57
2024/01/14 02:23:00;;;;;;;25.52;23.45;;;;;;;;;;5062815;28;20021;-58
2024/01/14 02:25:26;;;;;;;38.53;34.80;;;;;;;;;;5073008;28;20020;-59
2024/01/14 02:27:53;;;;;;;37.10;32.17;;;;;;;;;;5077009;28;20386;-55
2024/01/14 02:30:19;;;;;;;30.90;27.23;;;;;;;;;;5050965;28;20102;-56
2024/01/14 02:32:48;;;;;;;33.65;30.20;;;;;;;;;;5068026;28;20482;-59
2024/01/14 02:35:14;;;;;;;37.45;32.88;;;;;;;;;;5068693;28;20111;-58
2024/01/14 02:37:43;;;;;;;31.25;28.00;;;;;;;;;;5068443;28;20115;-57
2024/01/14 02:40:10;;;;;;;27.65;25.25;;;;;;;;;;5068672;28;20100;-60
2024/01/14 02:42:36;;;;;;;34.05;30.77;;;;;;;;;;5067832;28;20028;-58
2024/01/14 02:45:02;;;;;;;26.67;24.52;;;;;;;;;;5068526;28;20080;-56
2024/01/14 02:47:28;;;;;;;42.20;34.58;;;;;;;;;;5068577;28;20096;-58
2024/01/14 02:49:54;;;;;;;32.92;29.77;;;;;;;;;;5068708;28;20029;-58
2024/01/14 02:52:20;;;;;;;26.17;24.08;;;;;;;;;;5067831;28;20659;-58
2024/01/14 02:54:46;;;;;;;25.23;23.23;;;;;;;;;;5068704;28;20021;-58
2024/01/14 02:57:12;;;;;;;29.17;26.73;;;;;;;;;;5068551;28;20029;-59
2024/01/14 02:59:38;;;;;;;37.35;29.27;;;;;;;;;;5068802;28;20029;-56
2024/01/14 03:02:04;;;;;;;33.80;30.67;;;;;;;;;;5067995;28;20041;-58
2024/01/14 03:04:30;;;;;;;33.08;29.73;;;;;;;;;;5071575;28;20054;-60
2024/01/14 03:06:56;;;;;;;35.00;31.85;;;;;;;;;;5072395;28;20041;-57
2024/01/14 03:09:22;;;;;;;27.60;25.10;;;;;;;;;;5072576;28;20111;-59
2024/01/14 03:11:48;;;;;;;35.70;31.85;;;;;;;;;;5071707;28;20029;-58
2024/01/14 03:14:14;;;;;;;29.38;26.80;;;;;;;;;;5053757;28;20036;-59
2024/01/14 03:16:40;;;;;;;38.45;34.45;;;;;;;;;;5072622;28;20024;-56
2024/01/14 03:19:06;;;;;;;33.03;29.73;;;;;;;;;;5054755;28;20027;-58
2024/01/14 03:21:32;;;;;;;27.30;24.75;;;;;;;;;;5071883;28;20070;-57
2024/01/14 03:23:58;;;;;;;27.27;24.83;;;;;;;;;;5072248;28;20163;-58
2024/01/14 03:26:24;;;;;;;44.88;35.90;;;;;;;;;;5072304;28;20056;-56
2024/01/14 03:28:50;;;;;;;27.20;24.73;;;;;;;;;;5072065;28;20393;-56
2024/01/14 03:31:16;;;;;;;31.88;28.75;;;;;;;;;;5071271;28;20458;-57
2024/01/14 03:33:42;;;;;;;34.42;30.00;;;;;;;;;;5072040;28;20441;-57
2024/01/14 03:36:09;;;;;;;33.38;29.85;;;;;;;;;;5071961;28;20071;-57
2024/01/14 03:38:35;;;;;;;32.88;29.92;;;;;;;;;;5071733;28;20028;-60
2024/01/14 03:41:00;;;;;;;26.50;24.40;;;;;;;;;;5053297;28;20052;-58
2024/01/14 03:43:26;;;;;;;26.25;23.95;;;;;;;;;;5071589;28;20037;-59
2024/01/14 03:45:52;;;;;;;28.00;25.42;;;;;;;;;;5071934;28;20108;-56
2024/01/14 03:48:18;;;;;;;33.65;29.48;;;;;;;;;;5071791;28;20082;-58
2024/01/14 03:50:44;;;;;;;26.98;24.38;;;;;;;;;;5071570;28;20405;-58
2024/01/14 03:53:10;;;;;;;33.38;23.38;;;;;;;;;;5071086;28;20028;-58
2024/01/14 03:55:36;;;;;;;27.23;24.38;;;;;;;;;;5071653;28;20371;-57
2024/01/14 03:58:02;;;;;;;32.70;29.67;;;;;;;;;;5053589;28;20182;-52
2024/01/14 04:00:28;;;;;;;40.38;27.90;;;;;;;;;;5071676;28;20444;-59
2024/01/14 04:02:54;;;;;;;30.85;27.83;;;;;;;;;;5070726;28;20099;-58
2024/01/14 04:05:20;;;;;;;23.65;21.65;;;;;;;;;;5053362;28;20490;-58
2024/01/14 04:07:46;;;;;;;33.10;29.73;;;;;;;;;;5071608;28;20082;-59
2024/01/14 04:10:12;;;;;;;27.98;25.33;;;;;;;;;;5071686;28;20035;-57
2024/01/14 04:12:40;;;;;;;34.15;31.35;;;;;;;;;;5070021;28;20099;-56
2024/01/14 04:15:06;;;;;;;23.33;21.33;;;;;;;;;;5071487;28;20021;-57
2024/01/14 04:17:32;;;;;;;29.65;26.45;;;;;;;;;;5071416;28;20024;-56
2024/01/14 04:19:59;;;;;;;33.58;29.63;;;;;;;;;;5071610;28;20080;-58
2024/01/14 04:22:25;;;;;;;25.65;23.58;;;;;;;;;;5071152;28;20017;-59
2024/01/14 04:24:50;;;;;;;27.83;24.92;;;;;;;;;;5071165;28;20543;-59
2024/01/14 04:27:16;;;;;;;30.77;27.75;;;;;;;;;;5071277;28;20032;-56
2024/01/14 04:29:42;;;;;;;25.67;23.42;;;;;;;;;;5071167;28;20028;-57
2024/01/14 04:32:08;;;;;;;27.25;24.63;;;;;;;;;;5070363;28;20020;-55
2024/01/14 04:34:34;;;;;;;25.83;23.73;;;;;;;;;;5070979;28;20502;-56
2024/01/14 04:37:01;;;;;;;27.25;24.60;;;;;;;;;;5070672;28;20021;-58
2024/01/14 04:39:27;;;;;;;35.33;30.38;;;;;;;;;;5052813;28;20024;-60
2024/01/14 04:41:53;;;;;;;26.08;24.00;;;;;;;;;;5069683;28;20103;-56
2024/01/14 04:44:19;;;;;;;27.08;23.90;;;;;;;;;;5052376;28;20079;-56
2024/01/14 04:46:45;;;;;;;26.23;24.02;;;;;;;;;;5070771;28;20021;-59
2024/01/14 04:49:11;;;;;;;26.77;24.45;;;;;;;;;;5070704;28;20867;-57
2024/01/14 04:51:38;;;;;;;29.05;24.58;;;;;;;;;;5070162;28;20474;-56
2024/01/14 04:54:04;;;;;;;24.25;22.27;;;;;;;;;;5070502;28;20486;-58
2024/01/14 04:56:30;;;;;;;22.95;21.05;;;;;;;;;;5052512;28;20031;-57
2024/01/14 04:58:56;;;;;;;26.33;23.33;;;;;;;;;;5070312;28;20474;-57
2024/01/14 05:01:22;;;;;;;32.78;29.42;;;;;;;;;;5069569;28;20151;-58
2024/01/14 05:03:48;;;;;;;29.60;26.83;;;;;;;;;;5070311;28;20478;-58
2024/01/14 05:06:14;;;;;;;33.58;27.40;;;;;;;;;;5070161;28;20143;-59
2024/01/14 05:08:43;;;;;;;23.27;21.38;;;;;;;;;;5070444;28;20069;-58
2024/01/14 05:11:09;;;;;;;36.13;32.67;;;;;;;;;;5069436;28;20029;-60
2024/01/14 05:13:36;;;;;;;29.75;27.00;;;;;;;;;;5051176;28;20051;-55
2024/01/14 05:16:02;;;;;;;27.50;24.92;;;;;;;;;;5073463;28;20035;-58
2024/01/14 05:18:28;;;;;;;26.77;24.48;;;;;;;;;;5070010;28;20021;-57
2024/01/14 05:20:54;;;;;;;25.75;23.60;;;;;;;;;;5069487;28;20021;-58
2024/01/14 05:23:21;;;;;;;28.25;26.05;;;;;;;;;;5087291;28;20090;-58
2024/01/14 05:25:47;;;;;;;30.83;28.10;;;;;;;;;;5089441;28;20028;-57
2024/01/14 05:28:13;;;;;;;45.08;29.10;;;;;;;;;;5089775;28;20393;-57
2024/01/14 05:30:39;;;;;;;33.22;30.83;;;;;;;;;;5089796;28;20389;-56
2024/01/14 05:33:05;;;;;;;35.47;32.58;;;;;;;;;;5089323;28;20099;-55
2024/01/14 05:35:31;;;;;;;34.33;31.10;;;;;;;;;;5089719;28;20104;-57
2024/01/14 05:37:57;;;;;;;34.92;31.85;;;;;;;;;;5082978;28;20036;-57
2024/01/14 05:40:23;;;;;;;32.00;29.45;;;;;;;;;;5088366;28;20020;-57
2024/01/14 05:42:49;;;;;;;38.50;34.63;;;;;;;;;;5088988;28;20020;-58
2024/01/14 05:45:15;;;;;;;39.80;36.33;;;;;;;;;;5089513;28;20375;-57
2024/01/14 05:47:41;;;;;;;36.75;34.05;;;;;;;;;;5088397;28;20489;-57
2024/01/14 05:50:08;;;;;;;36.92;34.42;;;;;;;;;;5085602;28;20119;-57
2024/01/14 05:52:34;;;;;;;42.10;38.88;;;;;;;;;;5088502;28;20027;-57
2024/01/14 05:55:00;;;;;;;39.80;36.50;;;;;;;;;;5089464;28;20016;-57
2024/01/14 05:57:26;;;;;;;41.53;38.63;;;;;;;;;;5089145;28;20043;-58
2024/01/14 05:59:52;;;;;;;39.38;36.58;;;;;;;;;;5083171;28;20027;-57
2024/01/14 06:02:18;;;;;;;42.72;39.90;;;;;;;;;;5086197;28;20020;-58
2024/01/14 06:04:44;;;;;;;42.85;39.70;;;;;;;;;;5089200;28;20393;-57
2024/01/14 06:07:10;;;;;;;43.05;39.22;;;;;;;;;;5089058;28;20462;-57
2024/01/14 06:09:36;;;;;;;44.25;40.97;;;;;;;;;;5089227;28;20027;-54
2024/01/14 06:12:02;;;;;;;43.83;40.72;;;;;;;;;;5088677;28;20024;-55
2024/01/14 06:14:28;;;;;;;41.08;38.28;;;;;;;;;;5088990;28;20027;-55
2024/01/14 06:16:57;;;;;;;40.22;37.42;;;;;;;;;;5089338;28;20020;-57
2024/01/14 06:19:23;;;;;;;41.20;38.40;;;;;;;;;;5080981;28;20035;-58
2024/01/14 06:21:49;;;;;;;42.33;39.53;;;;;;;;;;5070643;28;20023;-57
2024/01/14 06:24:15;;;;;;;41.35;38.55;;;;;;;;;;5078944;28;20099;-55
2024/01/14 06:26:41;;;;;;;42.35;39.55;;;;;;;;;;5089316;28;20370;-58
2024/01/14 06:29:07;;;;;;;40.42;37.72;;;;;;;;;;5071232;28;20030;-57
2024/01/14 06:31:33;;;;;;;41.45;38.65;;;;;;;;;;5070148;28;20085;-57
2024/01/14 06:33:59;;;;;;;41.50;38.70;;;;;;;;;;5089045;28;20027;-57
2024/01/14 06:36:25;;;;;;;40.53;37.83;;;;;;;;;;5089146;28;20016;-57
2024/01/14 06:38:51;;;;;;;40.47;37.78;;;;;;;;;;5069782;28;20081;-56
2024/01/14 06:41:23;;;;;;;40.33;37.63;;;;;;;;;;5088207;28;20020;-57
2024/01/14 06:43:49;;;;;;;40.70;37.95;;;;;;;;;;5088937;28;20050;-57
2024/01/14 06:46:16;;;;;;;38.03;35.42;;;;;;;;;;5085465;28;20092;-58
2024/01/14 06:48:42;;;;;;;40.17;37.47;;;;;;;;;;5077399;28;20028;-57
2024/01/14 06:51:08;;;;;;;38.88;36.20;;;;;;;;;;5068013;28;20105;-56
2024/01/14 06:53:34;;;;;;;38.28;35.67;;;;;;;;;;5067028;28;20024;-54
2024/01/14 06:56:03;;;;;;;38.28;35.67;;;;;;;;;;5068638;28;20029;-55
2024/01/14 06:58:30;;;;;;;37.65;35.05;;;;;;;;;;5076424;28;20024;-56
2024/01/14 07:00:56;;;;;;;37.85;35.25;;;;;;;;;;5073352;28;20486;-55
2024/01/14 07:03:22;;;;;;;37.45;34.85;;;;;;;;;;5079773;28;20024;-56
2024/01/14 07:05:48;;;;;;;36.85;34.25;;;;;;;;;;5077237;28;20017;-57
2024/01/14 07:08:14;;;;;;;38.45;35.85;;;;;;;;;;5076537;28;20029;-58
2024/01/14 07:10:40;;;;;;;38.25;35.65;;;;;;;;;;5087846;28;20016;-57
2024/01/14 07:13:06;;;;;;;37.55;34.95;;;;;;;;;;5068650;28;20081;-57
2024/01/14 07:15:32;;;;;;;38.33;35.72;;;;;;;;;;5075963;28;20025;-57
2024/01/14 07:17:58;;;;;;;38.60;35.92;;;;;;;;;;5066708;28;20104;-58
2024/01/14 07:20:24;;;;;;;38.00;35.40;;;;;;;;;;5075024;28;20050;-57
2024/01/14 07:22:49;;;;;;;38.58;35.97;;;;;;;;;;5075661;28;20096;-58
2024/01/14 07:25:15;;;;;;;37.97;35.38;;;;;;;;;;5068371;28;20394;-58
2024/01/14 07:27:41;;;;;;;38.35;35.75;;;;;;;;;;5068187;28;20090;-58
2024/01/14 07:30:08;;;;;;;37.90;35.30;;;;;;;;;;5068315;28;20057;-57
2024/01/14 07:32:34;;;;;;;37.60;35.00;;;;;;;;;;5079521;28;20631;-55
2024/01/14 07:35:00;;;;;;;38.17;35.55;;;;;;;;;;5088654;28;20028;-57
2024/01/14 07:37:26;;;;;;;37.88;35.28;;;;;;;;;;5088989;28;20025;-56
2024/01/14 07:39:52;;;;;;;37.17;34.58;;;;;;;;;;5088675;28;20371;-57
2024/01/14 07:42:18;;;;;;;34.70;32.20;;;;;;;;;;5087668;28;20027;-58
2024/01/14 07:44:44;;;;;;;34.70;32.20;;;;;;;;;;5088254;28;20028;-58
2024/01/14 07:47:10;;;;;;;35.75;33.25;;;;;;;;;;5070521;28;20056;-59
2024/01/14 07:49:36;;;;;;;34.33;31.85;;;;;;;;;;5090014;28;20044;-58
2024/01/14 07:52:02;;;;;;;34.28;31.88;;;;;;;;;;5091619;28;20082;-59
2024/01/14 07:54:28;;;;;;;35.33;32.83;;;;;;;;;;5092451;28;20031;-57
2024/01/14 07:56:54;;;;;;;35.08;32.58;;;;;;;;;;5092064;28;20024;-55
2024/01/14 07:59:23;;;;;;;35.65;33.15;;;;;;;;;;5092214;28;20512;-57
2024/01/14 08:01:49;;;;;;;35.00;32.50;;;;;;;;;;5091608;28;20381;-56
2024/01/14 08:04:15;;;;;;;33.88;31.48;;;;;;;;;;5091809;28;20028;-56
2024/01/14 08:06:41;;;;;;;33.90;31.50;;;;;;;;;;5091921;28;20036;-57
2024/01/14 08:09:09;;;;;;;33.88;31.48;;;;;;;;;;5091926;28;20054;-57
2024/01/14 08:11:35;;;;;;;34.55;32.15;;;;;;;;;;5091348;28;20024;-55
2024/01/14 08:14:01;;;;;;;34.10;31.70;;;;;;;;;;5090598;28;20405;-60
2024/01/14 08:16:27;;;;;;;33.67;31.27;;;;;;;;;;5091513;28;20024;-59
2024/01/14 08:18:53;;;;;;;33.78;31.38;;;;;;;;;;5091581;28;20482;-58
2024/01/14 08:21:19;;;;;;;33.95;31.55;;;;;;;;;;5090845;28;20060;-57
2024/01/14 08:23:45;;;;;;;33.30;30.90;;;;;;;;;;5091336;28;20021;-58
2024/01/14 08:26:11;;;;;;;33.42;31.02;;;;;;;;;;5091443;28;20028;-58
2024/01/14 08:28:37;;;;;;;33.00;30.60;;;;;;;;;;5091255;28;20024;-58
2024/01/14 08:31:03;;;;;;;32.33;30.02;;;;;;;;;;5090781;28;20032;-57
2024/01/14 08:33:29;;;;;;;32.03;29.73;;;;;;;;;;5090930;28;20031;-59
2024/01/14 08:35:56;;;;;;;31.25;28.95;;;;;;;;;;5091223;28;20156;-57
2024/01/14 08:38:23;;;;;;;31.58;29.27;;;;;;;;;;5091048;28;20140;-56
2024/01/14 08:40:49;;;;;;;32.10;29.80;;;;;;;;;;5090644;28;20016;-56
2024/01/14 08:43:15;;;;;;;32.38;30.08;;;;;;;;;;5072391;28;20032;-57
2024/01/14 08:45:41;;;;;;;32.22;29.92;;;;;;;;;;5091704;28;20020;-58
2024/01/14 08:48:07;;;;;;;31.90;29.60;;;;;;;;;;5091195;28;20034;-59
2024/01/14 08:50:33;;;;;;;32.03;29.73;;;;;;;;;;5090981;28;20103;-57
2024/01/14 08:52:59;;;;;;;31.73;29.42;;;;;;;;;;5071513;28;20027;-58
2024/01/14 08:55:25;;;;;;;32.33;30.02;;;;;;;;;;5090710;28;20107;-58
2024/01/14 08:57:51;;;;;;;38.78;35.25;;;;;;;;;;5090711;28;20103;-58
2024/01/14 09:00:18;;;;;;;37.20;34.25;;;;;;;;;;5090186;28;20430;-60
2024/01/14 09:02:44;;;;;;;41.20;37.35;;;;;;;;;;5089689;28;20111;-56
2024/01/14 09:05:10;;;;;;;39.63;36.53;;;;;;;;;;5090709;28;20093;-54
2024/01/14 09:07:36;;;;;;;40.90;37.50;;;;;;;;;;5090647;28;20032;-56
2024/01/14 09:10:02;;;;;;;37.85;35.15;;;;;;;;;;5090740;28;20095;-57
2024/01/14 09:12:29;;;;;;;46.55;41.67;;;;;;;;;;5088888;28;20485;-57
2024/01/14 09:14:55;;;;;;;33.33;30.95;;;;;;;;;;5090402;28;20039;-56
2024/01/14 09:17:21;;;;;;;40.95;37.08;;;;;;;;;;5090539;28;20032;-50
2024/01/14 09:19:47;;;;;;;42.60;38.95;;;;;;;;;;5086783;28;20099;-50
2024/01/14 09:22:13;;;;;;;36.20;33.35;;;;;;;;;;5088677;28;20020;-52
2024/01/14 09:24:43;;;;;;;41.95;38.47;;;;;;;;;;5069623;28;20074;-50
2024/01/14 09:27:10;;;;;;;38.38;35.53;;;;;;;;;;5068488;28;20413;-46
2024/01/14 09:29:36;;;;;;;43.40;38.53;;;;;;;;;;5069753;28;20039;-46
2024/01/14 09:32:02;;;;;;;38.03;35.20;;;;;;;;;;5068859;28;20028;-52
2024/01/14 09:34:28;;;;;;;38.00;34.72;;;;;;;;;;5069318;28;20513;-46
2024/01/14 09:36:54;;;;;;;39.58;36.17;;;;;;;;;;5069153;28;20024;-47
2024/01/14 09:39:21;;;;;;;42.80;38.75;;;;;;;;;;5069553;28;20024;-47
2024/01/14 09:41:53;;;;;;;38.60;34.97;;;;;;;;;;5069534;28;20020;-48
2024/01/14 09:44:19;;;;;;;37.38;34.33;;;;;;;;;;5069311;28;20405;-47
2024/01/14 09:46:46;;;;;;;36.72;33.90;;;;;;;;;;5069818;28;20016;-48
2024/01/14 09:49:12;;;;;;;38.17;35.35;;;;;;;;;;5069450;28;20410;-47
2024/01/14 09:51:39;;;;;;;43.95;40.17;;;;;;;;;;5072908;28;20035;-47
2024/01/14 09:54:05;;;;;;;39.80;35.22;;;;;;;;;;5088310;28;20027;-48
2024/01/14 09:56:33;;;;;;;40.28;37.33;;;;;;;;;;5059937;28;20030;-48
2024/01/14 09:59:03;;;;;;;34.35;31.90;;;;;;;;;;5072136;28;20039;-47
2024/01/14 10:01:33;;;;;;;38.42;34.97;;;;;;;;;;5087050;28;20560;-51
2024/01/14 10:04:00;;;;;;;36.72;34.03;;;;;;;;;;5089345;28;20103;-49
2024/01/14 10:06:26;;;;;;;38.53;35.13;;;;;;;;;;5089511;28;20070;-50
2024/01/14 10:08:52;;;;;;;34.63;32.13;;;;;;;;;;5071198;28;20428;-49
2024/01/14 10:11:18;;;;;;;34.85;32.10;;;;;;;;;;5070650;28;20107;-51
2024/01/14 10:13:44;;;;;;;41.47;36.80;;;;;;;;;;5088597;28;20115;-51
2024/01/14 10:16:14;;;;;;;35.60;32.90;;;;;;;;;;5089396;28;20024;-54
2024/01/14 10:18:40;;;;;;;39.35;35.35;;;;;;;;;;5071305;28;20478;-54
2024/01/14 10:21:06;;;;;;;37.17;34.28;;;;;;;;;;5088468;28;20036;-51
2024/01/14 10:23:32;;;;;;;48.40;37.00;;;;;;;;;;5089038;28;20070;-52
2024/01/14 10:26:02;;;;;;;37.90;34.60;;;;;;;;;;5089255;28;20027;-55
2024/01/14 10:28:37;;;;;;;38.45;35.40;;;;;;;;;;5089009;28;20024;-50
2024/01/14 10:31:05;;;;;;;35.50;32.40;;;;;;;;;;5088365;28;20024;-51
2024/01/14 10:33:34;;;;;;;36.30;33.38;;;;;;;;;;5070899;28;20032;-54
2024/01/14 10:36:00;;;;;;;34.75;32.13;;;;;;;;;;5089104;28;20029;-49
2024/01/14 10:38:27;;;;;;;39.05;35.20;;;;;;;;;;5088751;28;20028;-53
2024/01/14 10:40:53;;;;;;;41.25;37.45;;;;;;;;;;5088806;28;20115;-53
2024/01/14 10:43:25;;;;;;;34.03;30.55;;;;;;;;;;5088231;28;20055;-50
2024/01/14 10:45:52;;;;;;;31.52;29.13;;;;;;;;;;5088534;28;20024;-56
2024/01/14 10:48:24;;;;;;;30.08;27.35;;;;;;;;;;5089052;28;20024;-51
2024/01/14 10:50:52;;;;;;;33.28;30.17;;;;;;;;;;5088578;28;20028;-55
2024/01/14 10:53:26;;;;;;;37.33;29.25;;;;;;;;;;5088356;28;20466;-50
2024/01/14 10:56:05;;;;;;;30.17;27.42;;;;;;;;;;5070331;28;20032;-51
2024/01/14 10:58:36;;;;;;;38.10;34.58;;;;;;;;;;5089185;28;20514;-52
2024/01/14 11:01:04;;;;;;;34.38;30.95;;;;;;;;;;5069571;28;20719;-53
2024/01/14 11:03:30;;;;;;;;;;;;;;;;;;5089160;28;20692;-51
2024/01/14 11:05:56;;;;;;;34.97;32.13;;;;;;;;;;5070562;28;19950;-52
2024/01/14 11:08:23;;;;;;;30.63;26.45;;;;;;;;;;5088567;28;20028;-54
2024/01/14 11:10:52;;;;;;;29.58;26.90;;;;;;;;;;5088558;28;20024;-51
2024/01/14 11:13:21;;;;;;;34.92;31.48;;;;;;;;;;5087337;28;20024;-51
2024/01/14 11:15:47;;;;;;;;;;;;;;;;;;5089253;28;20436;-52
2024/01/14 11:18:25;;;;;;;70.32;30.80;;;;;;;;;;5088612;28;19915;-54
2024/01/14 11:20:56;;;;;;;26.92;24.50;;;;;;;;;;5088456;28;20020;-53
2024/01/14 11:23:22;;;;;;;30.27;28.00;;;;;;;;;;5088600;28;20103;-53
2024/01/14 11:25:49;;;;;;;49.10;31.48;;;;;;;;;;5092361;28;20096;-52
2024/01/14 11:28:15;;;;;;;36.50;32.47;;;;;;;;;;5086237;28;20025;-56
2024/01/14 11:31:01;;;;;;;23.42;21.42;;;;;;;;;;5070347;28;20036;-53
2024/01/14 11:33:42;;;;;;;31.15;28.10;;;;;;;;;;5071772;28;20024;-51
2024/01/14 11:36:08;;;;;;;25.25;22.73;;;;;;;;;;5072009;28;20074;-53
2024/01/14 11:38:37;;;;;;;29.45;26.92;;;;;;;;;;5071836;28;20032;-53
2024/01/14 11:41:22;;;;;;;34.35;27.90;;;;;;;;;;5070912;28;20512;-54
2024/01/14 11:43:48;;;;;;;24.65;22.65;;;;;;;;;;5070007;28;20025;-48
2024/01/14 11:46:33;;;;;;;35.40;31.30;;;;;;;;;;5088534;28;20023;-54
2024/01/14 11:48:59;;;;;;;33.50;27.77;;;;;;;;;;5091621;28;20047;-53
2024/01/14 11:51:25;;;;;;;24.33;22.33;;;;;;;;;;5090787;28;20039;-50
2024/01/14 11:53:51;;;;;;;26.02;23.70;;;;;;;;;;5091799;28;20168;-54
2024/01/14 11:56:30;;;;;;;29.83;26.70;;;;;;;;;;5091614;28;20031;-51
2024/01/14 11:58:56;;;;;;;;;;;;;;;;;;5091577;28;20036;-53
2024/01/14 12:01:22;;;;;;;26.27;23.83;;;;;;;;;;5090531;28;20354;-52
2024/01/14 12:04:00;;;;;;;27.73;25.48;;;;;;;;;;5091639;28;20389;-51
2024/01/14 12:06:26;;;;;;;27.52;23.67;;;;;;;;;;5073053;28;20068;-53
2024/01/14 12:09:01;;;;;;;38.05;32.33;;;;;;;;;;5091215;28;20034;-52
2024/01/14 12:11:27;;;;;;;40.35;30.92;;;;;;;;;;5090428;28;20535;-52
2024/01/14 12:13:54;;;;;;;22.85;20.55;;;;;;;;;;5072780;28;20020;-52
2024/01/14 12:16:20;;;;;;;29.42;22.33;;;;;;;;;;5091134;28;20095;-54
2024/01/14 12:18:46;;;;;;;23.98;21.77;;;;;;;;;;5091135;28;20027;-53
2024/01/14 12:21:12;;;;;;;28.05;25.10;;;;;;;;;;5090203;28;20069;-52
2024/01/14 12:23:38;;;;;;;26.35;23.60;;;;;;;;;;5090940;28;20354;-54
2024/01/14 12:26:05;;;;;;;22.13;20.02;;;;;;;;;;5091086;28;20526;-50
2024/01/14 12:28:31;;;;;;;22.42;20.52;;;;;;;;;;5090968;28;20536;-49
2024/01/14 12:30:58;;;;;;;19.90;18.10;;;;;;;;;;5081682;28;20032;-53
2024/01/14 12:33:24;;;;;;;23.90;21.88;;;;;;;;;;5079488;28;20066;-49
2024/01/14 12:35:50;;;;;;;23.05;20.98;;;;;;;;;;5069754;28;20076;-50
2024/01/14 12:38:16;;;;;;;31.92;28.33;;;;;;;;;;5070943;28;20123;-49
2024/01/14 12:40:42;;;;;;;35.78;26.73;;;;;;;;;;5070892;28;20081;-49
2024/01/14 12:43:09;;;;;;;26.95;24.48;;;;;;;;;;5070383;28;20040;-49
2024/01/14 12:45:35;;;;;;;22.58;20.48;;;;;;;;;;5070976;28;20040;-51
2024/01/14 12:48:02;;;;;;;22.67;20.42;;;;;;;;;;5070660;28;20386;-55
2024/01/14 12:50:29;;;;;;;34.17;26.07;;;;;;;;;;5070536;28;20031;-50
2024/01/14 12:53:03;;;;;;;27.02;24.08;;;;;;;;;;5069866;28;20108;-54
2024/01/14 12:55:30;;;;;;;19.65;17.77;;;;;;;;;;5070446;28;20028;-53
2024/01/14 12:57:58;;;;;;;32.45;20.58;;;;;;;;;;5071010;28;20032;-51
2024/01/14 13:00:24;;;;;;;22.92;19.77;;;;;;;;;;5070289;28;20032;-48
2024/01/14 13:02:50;;;;;;;17.75;15.85;;;;;;;;;;5069569;28;20032;-51
2024/01/14 13:05:16;;;;;;;42.72;25.42;;;;;;;;;;5069946;28;20028;-52
2024/01/14 13:07:42;;;;;;;23.83;18.80;;;;;;;;;;5070439;28;20028;-53
2024/01/14 13:10:08;;;;;;;24.05;17.52;;;;;;;;;;5070229;28;20394;-54
2024/01/14 13:12:34;;;;;;;26.92;19.13;;;;;;;;;;5069171;28;20055;-55
2024/01/14 13:15:00;;;;;;;18.52;16.60;;;;;;;;;;5069938;28;20057;-52
2024/01/14 13:17:26;;;;;;;32.78;18.27;;;;;;;;;;5070128;28;20024;-51
2024/01/14 13:19:52;;;;;;;16.88;14.77;;;;;;;;;;5069860;28;20088;-53
2024/01/14 13:22:18;;;;;;;43.45;26.23;;;;;;;;;;5069514;28;20052;-55
2024/01/14 13:24:44;;;;;;;24.85;17.65;;;;;;;;;;5069906;28;20028;-54
2024/01/14 13:27:10;;;;;;;14.80;12.05;;;;;;;;;;5069852;28;20074;-52
2024/01/14 13:29:36;;;;;;;17.25;14.73;;;;;;;;;;5069808;28;20025;-50
2024/01/14 13:32:03;;;;;;;24.33;17.90;;;;;;;;;;5068833;28;20024;-50
2024/01/14 13:34:28;;;;;;;14.30;10.88;;;;;;;;;;5069941;28;20025;-50
2024/01/14 13:36:54;;;;;;;20.08;15.35;;;;;;;;;;5069634;28;20379;-53
2024/01/14 13:39:20;;;;;;;17.85;13.65;;;;;;;;;;5069527;28;20016;-54
2024/01/14 13:41:46;;;;;;;15.50;11.23;;;;;;;;;;5068714;28;20375;-53
2024/01/14 13:44:12;;;;;;;17.52;12.23;;;;;;;;;;5069271;28;20093;-53
2024/01/14 13:46:38;;;;;;;39.20;17.77;;;;;;;;;;5069225;28;20025;-55
2024/01/14 13:49:04;;;;;;;45.28;20.02;;;;;;;;;;5069632;28;20025;-50
2024/01/14 13:51:30;;;;;;;19.77;11.57;;;;;;;;;;5068631;28;20086;-54
2024/01/14 13:53:56;;;;;;;14.23;8.77;;;;;;;;;;5069325;28;20040;-53
2024/01/14 13:56:24;;;;;;;32.30;18.23;;;;;;;;;;5069401;28;20029;-47
2024/01/14 13:58:50;;;;;;;11.98;7.60;;;;;;;;;;5068883;28;20078;-50
2024/01/14 14:01:16;;;;;;;19.77;10.43;;;;;;;;;;5068237;28;20057;-54
2024/01/14 14:03:42;;;;;;;33.28;18.45;;;;;;;;;;5069046;28;20104;-54
2024/01/14 14:06:08;;;;;;;39.33;21.30;;;;;;;;;;5069043;28;20044;-52
2024/01/14 14:08:34;;;;;;;17.15;9.63;;;;;;;;;;5069194;28;20024;-49
2024/01/14 14:11:00;;;;;;;18.95;10.52;;;;;;;;;;5068386;28;20402;-52
2024/01/14 14:13:26;;;;;;;25.45;14.63;;;;;;;;;;5067799;28;20031;-49
2024/01/14 14:15:52;;;;;;;27.40;11.77;;;;;;;;;;5068889;28;20533;-50